Time;durP1;ratioP1;P1;durP2;ratioP2;P2;SDS_P1;SDS_P2;PMS_P1;PMS_P2;Temp;Humidity;BMP_temperature;BMP_pressure;BME280_temperature;BME280_humidity;BME280_pressure;Samples;Min_cycle;Max_cycle;Signal;HPM_P1;HPM_P2
2023/10/17 00:01:44;;;;;;;4.72;2.50;;;;;;;7.55;94.79;101976.09;5048023;28;20063;-80
2023/10/17 00:06:50;;;;;;;4.82;2.20;;;;;;;7.56;94.59;101972.63;5047352;28;20041;-80
2023/10/17 00:09:21;;;;;;;4.97;2.55;;;;;;;7.54;94.34;101966.56;5047364;28;20037;-80
2023/10/17 00:14:23;;;;;;;3.85;2.20;;;;;;;7.53;94.72;101964.84;5053015;28;20024;-80
2023/10/17 00:16:50;;;;;;;6.25;2.63;;;;;;;7.52;95.09;101961.41;5065305;28;20052;-80
2023/10/17 00:19:16;;;;;;;3.17;2.22;;;;;;;7.53;95.14;101959.66;5073941;28;20467;-80
2023/10/17 00:21:42;;;;;;;6.15;2.60;;;;;;;7.55;94.83;101965.72;5053068;28;20025;-80
2023/10/17 00:24:08;;;;;;;4.43;2.72;;;;;;;7.52;94.70;101956.22;5051255;28;20032;-80
2023/10/17 00:26:40;;;;;;;4.93;2.90;;;;;;;7.52;95.03;101963.13;5052163;28;20029;-80
2023/10/17 00:29:10;;;;;;;4.95;2.60;;;;;;;7.51;94.75;101964.84;5054156;28;20028;-80
2023/10/17 00:31:36;;;;;;;4.35;2.30;;;;;;;7.50;94.89;101964.84;5053933;28;20035;-80
2023/10/17 00:34:07;;;;;;;4.22;2.60;;;;;;;7.49;94.77;101969.16;5051950;28;20021;-80
2023/10/17 00:36:33;;;;;;;5.60;2.60;;;;;;;7.49;94.70;101968.31;5046733;28;20064;-80
2023/10/17 00:39:07;;;;;;;4.88;2.80;;;;;;;7.48;94.60;101961.38;5049310;28;20044;-80
2023/10/17 00:41:50;;;;;;;4.82;2.85;;;;;;;7.45;94.66;101954.44;5050119;28;20607;-80
2023/10/17 00:44:17;;;;;;;5.60;2.80;;;;;;;7.43;95.01;101956.16;5046909;28;20021;-80
2023/10/17 00:46:42;;;;;;;4.18;2.80;;;;;;;7.43;95.64;101962.22;5045681;28;20094;-80
2023/10/17 00:49:10;;;;;;;4.43;2.60;;;;;;;7.44;94.84;101955.31;5041364;28;20049;-80
2023/10/17 00:51:39;;;;;;;5.57;2.70;;;;;;;7.43;94.94;101946.69;5045778;28;20017;-80
2023/10/17 00:54:06;;;;;;;4.43;2.50;;;;;;;7.42;94.82;101941.50;5045760;28;20021;-80
2023/10/17 00:56:31;;;;;;;4.53;2.97;;;;;;;7.41;94.92;101940.63;5049454;28;20025;-80
2023/10/17 00:58:57;;;;;;;4.57;2.80;;;;;;;7.39;94.61;101931.13;5047895;28;20091;-80
2023/10/17 01:01:26;;;;;;;6.65;2.90;;;;;;;7.37;94.68;101928.53;5048323;28;20459;-80
2023/10/17 01:03:54;;;;;;;8.13;2.92;;;;;;;7.37;94.81;101941.47;5047073;28;20021;-80
2023/10/17 01:08:54;;;;;;;5.60;2.92;;;;;;;7.36;94.77;101931.97;5048868;28;20076;-80
2023/10/17 01:11:20;;;;;;;6.00;2.85;;;;;;;7.37;94.60;101935.44;5049470;28;20048;-80
2023/10/17 01:13:54;;;;;;;5.18;3.13;;;;;;;7.37;94.50;101938.03;5048890;28;20033;-80
2023/10/17 01:16:20;;;;;;;5.35;2.80;;;;;;;7.35;95.02;101935.41;5050160;28;20395;-80
2023/10/17 01:18:46;;;;;;;5.47;2.65;;;;;;;7.34;94.86;101933.72;5049854;28;20103;-80
2023/10/17 01:21:19;;;;;;;4.07;2.60;;;;;;;7.33;94.93;101950.09;5060774;28;20586;-80
2023/10/17 01:23:45;;;;;;;4.95;2.75;;;;;;;7.34;95.25;101948.38;5051472;28;20108;-80
2023/10/17 01:26:14;;;;;;;4.30;2.70;;;;;;;7.36;95.04;101950.09;5047068;28;20034;-80
2023/10/17 01:28:41;;;;;;;5.68;2.78;;;;;;;7.36;94.83;101944.91;5049406;28;20476;-80
2023/10/17 01:31:07;;;;;;;6.65;3.00;;;;;;;7.36;94.64;101944.91;5049689;28;20021;-80
2023/10/17 01:33:33;;;;;;;5.28;3.00;;;;;;;7.35;94.49;101945.78;5048608;28;20031;-80
2023/10/17 01:36:00;;;;;;;4.93;2.97;;;;;;;7.34;94.68;101948.38;5047218;28;20020;-80
2023/10/17 01:38:26;;;;;;;5.03;2.60;;;;;;;7.33;94.39;101950.09;5046768;28;20511;-80
2023/10/17 01:40:53;;;;;;;6.50;2.97;;;;;;;7.32;94.70;101947.47;5048061;28;20025;-80
2023/10/17 01:43:19;;;;;;;6.97;3.03;;;;;;;7.29;94.55;101933.66;5032702;28;20028;-80
2023/10/17 01:45:48;;;;;;;5.68;2.80;;;;;;;7.29;94.33;101927.63;5045213;28;20403;-80
2023/10/17 01:48:13;;;;;;;5.03;3.00;;;;;;;7.28;94.20;101921.56;5047679;28;20025;-80
2023/10/17 01:50:39;;;;;;;7.03;3.00;;;;;;;7.28;94.30;101912.97;5049721;28;20415;-80
2023/10/17 01:53:12;;;;;;;4.68;2.95;;;;;;;7.27;94.10;101908.63;5048890;28;20033;-80
2023/10/17 01:55:39;;;;;;;4.15;2.60;;;;;;;7.25;94.30;101908.66;5049812;28;20093;-80
2023/10/17 01:58:07;;;;;;;4.13;2.78;;;;;;;7.25;94.43;101910.34;5050128;28;20514;-80
2023/10/17 02:00:38;;;;;;;3.65;2.65;;;;;;;7.25;94.42;101910.34;5048526;28;20124;-80
2023/10/17 02:03:08;;;;;;;5.47;2.80;;;;;;;7.25;94.35;101908.66;5047995;28;20029;-80
2023/10/17 02:05:36;;;;;;;5.20;2.65;;;;;;;7.22;94.27;101894.78;5048770;28;20032;-80
2023/10/17 02:08:01;;;;;;;6.30;2.83;;;;;;;7.23;94.28;101893.94;5049088;28;20028;-80
2023/10/17 02:10:28;;;;;;;3.90;2.63;;;;;;;7.20;93.96;101886.16;5047161;28;20106;-80
2023/10/17 02:12:54;;;;;;;5.95;2.70;;;;;;;7.20;94.29;101881.88;5046622;28;20171;-80
2023/10/17 02:15:20;;;;;;;5.57;3.08;;;;;;;7.20;94.41;101891.34;5046885;28;20151;-80
2023/10/17 02:17:46;;;;;;;4.03;2.95;;;;;;;7.17;94.72;101887.00;5046895;28;20036;-80
2023/10/17 02:20:21;;;;;;;5.35;2.70;;;;;;;7.19;94.22;101884.41;5047370;28;20035;-80
2023/10/17 02:22:53;;;;;;;4.90;3.03;;;;;;;7.17;94.29;101886.16;5047984;28;20156;-80
2023/10/17 02:25:21;;;;;;;4.65;3.20;;;;;;;7.15;94.29;101880.97;5049125;28;20036;-80
2023/10/17 02:27:48;;;;;;;8.07;3.05;;;;;;;7.16;94.18;101887.03;5047020;28;20063;-80
2023/10/17 02:30:14;;;;;;;6.25;3.30;;;;;;;7.15;93.95;101883.56;5047331;28;20033;-80
2023/10/17 02:32:44;;;;;;;5.60;3.08;;;;;;;7.12;94.17;101887.00;5047517;28;20032;-80
2023/10/17 02:35:14;;;;;;;5.20;3.20;;;;;;;7.11;94.32;101895.63;5046804;28;20078;-80
2023/10/17 02:37:43;;;;;;;8.18;3.20;;;;;;;7.10;94.44;101888.72;5046318;28;20381;-80
2023/10/17 02:40:20;;;;;;;5.75;3.20;;;;;;;7.11;94.37;101893.03;5047642;28;20124;-80
2023/10/17 02:42:47;;;;;;;4.85;3.20;;;;;;;7.09;94.24;101883.50;5047062;28;20037;-80
2023/10/17 02:45:13;;;;;;;4.28;2.97;;;;;;;7.07;94.19;101890.41;5047637;28;20456;-80
2023/10/17 02:47:43;;;;;;;5.75;3.38;;;;;;;7.06;93.98;101888.69;5047426;28;20078;-80
2023/10/17 02:53:12;;;;;;;5.70;3.40;;;;;;;7.03;94.40;101884.34;5035268;28;20033;-80
2023/10/17 02:55:38;;;;;;;6.55;3.60;;;;;;;7.03;94.40;101889.50;5048959;28;20101;-80
2023/10/17 02:58:03;;;;;;;5.53;3.47;;;;;;;7.01;94.37;101875.69;5048715;28;20552;-80
2023/10/17 03:00:35;;;;;;;5.20;3.72;;;;;;;7.02;94.27;101876.59;5043137;28;20127;-80
2023/10/17 03:03:11;;;;;;;6.65;3.65;;;;;;;7.02;94.67;101874.84;5054396;28;20052;-80
2023/10/17 03:05:41;;;;;;;8.40;3.90;;;;;;;7.00;94.77;101874.00;5055218;28;20093;-80
2023/10/17 03:08:10;;;;;;;9.35;4.05;;;;;;;6.99;94.55;101878.28;5054492;28;20387;-80
2023/10/17 03:10:39;;;;;;;6.93;4.13;;;;;;;6.98;94.58;101870.53;5052379;28;20453;-80
2023/10/17 03:13:14;;;;;;;8.15;4.10;;;;;;;6.98;94.98;101871.38;5058501;28;20070;-80
2023/10/17 03:15:45;;;;;;;7.85;4.13;;;;;;;6.99;94.71;101878.28;5055417;28;20029;-80
2023/10/17 03:18:15;;;;;;;8.70;4.35;;;;;;;6.99;94.52;101887.78;5060427;28;20079;-81
2023/10/17 03:20:41;;;;;;;8.43;4.55;;;;;;;6.98;95.23;101881.72;5054528;28;20067;-80
2023/10/17 03:23:09;;;;;;;6.80;4.13;;;;;;;7.01;95.16;101877.44;5060046;28;20495;-80
2023/10/17 03:25:37;;;;;;;6.68;4.35;;;;;;;7.02;95.15;101879.16;5061244;28;20032;-80
2023/10/17 03:28:13;;;;;;;7.65;4.45;;;;;;;7.00;95.06;101879.16;5053091;28;20468;-80
2023/10/17 03:30:38;;;;;;;8.65;4.47;;;;;;;7.00;94.91;101881.75;5052579;28;20021;-80
2023/10/17 03:33:26;;;;;;;8.10;4.30;;;;;;;6.99;95.02;101883.47;5054355;28;20035;-80
2023/10/17 03:38:27;;;;;;;6.80;4.30;;;;;;;6.99;95.30;101874.84;5052816;28;20037;-80
2023/10/17 03:40:54;;;;;;;7.30;4.57;;;;;;;6.98;95.00;101880.88;5050330;28;20021;-80
2023/10/17 03:43:28;;;;;;;8.13;4.85;;;;;;;6.97;94.93;101892.09;5053166;28;20056;-80
2023/10/17 03:45:57;;;;;;;8.10;4.88;;;;;;;6.96;95.11;101887.75;5052572;28;20032;-80
2023/10/17 03:48:24;;;;;;;8.35;4.95;;;;;;;6.96;95.33;101891.19;5047978;28;20155;-80
2023/10/17 03:53:15;;;;;;;8.93;4.85;;;;;;;6.95;95.52;101896.38;5054628;28;20497;-80
2023/10/17 03:55:43;;;;;;;8.85;5.03;;;;;;;6.95;95.48;101893.78;5054748;28;20109;-80
2023/10/17 04:00:51;;;;;;;9.18;5.40;;;;;;;6.95;95.35;101886.88;5049227;28;20060;-80
2023/10/17 04:03:26;;;;;;;9.30;5.63;;;;;;;6.96;95.38;101887.75;5050739;28;20087;-80
2023/10/17 04:06:01;;;;;;;10.23;5.70;;;;;;;6.94;95.69;101885.16;5052619;28;20380;-80
2023/10/17 04:08:31;;;;;;;7.63;4.90;;;;;;;6.94;95.82;101886.88;5050334;28;20021;-80
2023/10/17 04:11:14;;;;;;;9.00;5.22;;;;;;;6.94;95.47;101881.72;5051467;28;20021;-80
2023/10/17 04:13:39;;;;;;;8.45;5.43;;;;;;;6.94;95.42;101889.47;5057098;28;20027;-79
2023/10/17 04:16:10;;;;;;;8.73;5.32;;;;;;;6.92;95.45;101886.00;5054199;28;20169;-80
2023/10/17 04:18:38;;;;;;;8.88;5.38;;;;;;;6.94;95.73;101889.47;5052551;28;20120;-80
2023/10/17 04:21:27;;;;;;;11.52;5.63;;;;;;;6.93;95.68;101892.91;5053097;28;20786;-80
2023/10/17 04:23:55;;;;;;;8.38;5.40;;;;;;;6.94;95.92;101895.50;5052667;28;20537;-80
2023/10/17 04:26:27;;;;;;;9.68;5.88;;;;;;;6.93;95.49;101886.00;5060359;28;20036;-80
2023/10/17 04:28:56;;;;;;;;;;;;;;;6.96;94.56;101892.94;5066798;28;20021;-80
2023/10/17 04:31:25;;;;;;;7.07;4.93;;;;;;;6.94;95.82;101897.22;5055545;28;20485;-80
2023/10/17 04:34:06;;;;;;;10.55;5.53;;;;;;;6.94;96.27;101895.50;5064698;28;20028;-80
2023/10/17 04:36:38;;;;;;;9.15;5.13;;;;;;;6.96;96.62;101892.94;5050773;28;20464;-80
2023/10/17 04:39:19;;;;;;;;;;;;;;;7.00;94.88;101892.09;5045343;28;20057;-80
2023/10/17 04:44:21;;;;;;;7.85;5.38;;;;;;;6.95;96.08;101897.22;5049673;28;20082;-80
2023/10/17 04:46:50;;;;;;;9.52;5.63;;;;;;;6.95;96.31;101906.72;5050012;28;20031;-80
2023/10/17 04:49:20;;;;;;;9.65;5.82;;;;;;;6.95;96.10;101906.72;5046409;28;20033;-80
2023/10/17 04:51:51;;;;;;;9.43;5.72;;;;;;;6.94;96.20;101905.00;5050955;28;20040;-80
2023/10/17 04:54:30;;;;;;;8.35;5.95;;;;;;;6.95;96.50;101901.56;5049009;28;20028;-80
2023/10/17 04:56:59;;;;;;;8.23;5.53;;;;;;;6.95;97.06;101892.06;5048891;28;20031;-80
2023/10/17 05:00:24;;;;;;;9.15;5.65;;;;;;;6.98;96.59;101896.41;5048483;28;20033;-80
2023/10/17 05:07:21;;;;;;;10.23;6.60;;;;;;;6.97;96.39;101892.09;5049310;28;20032;-80
2023/10/17 06:18:16;;;;;;;10.52;6.30;;;;;;;6.83;96.66;101861.78;5051694;28;20122;-80
2023/10/17 06:24:06;;;;;;;10.43;6.38;;;;;;;6.82;96.64;101875.63;5053042;28;20498;-80
2023/10/17 06:34:28;;;;;;;10.65;6.07;;;;;;;6.81;96.49;101879.06;5037218;28;20193;-80
2023/10/17 06:36:59;;;;;;;11.05;6.53;;;;;;;6.81;96.85;101884.22;5046388;28;20173;-80
2023/10/17 06:39:36;;;;;;;;;;;;;;;6.84;95.78;101888.53;5042439;28;20036;-80
2023/10/17 06:42:14;;;;;;;9.15;5.35;;;;;;;6.84;96.70;101893.72;5045463;28;20367;-80
2023/10/17 06:44:53;;;;;;;11.63;5.68;;;;;;;6.86;96.84;101891.13;5041746;28;20041;-80
2023/10/17 06:47:31;;;;;;;9.73;5.75;;;;;;;6.84;96.82;101891.97;5048343;28;20091;-80
2023/10/17 06:52:40;;;;;;;9.77;6.35;;;;;;;6.89;96.75;101891.16;5048861;28;20490;-80
2023/10/17 06:55:19;;;;;;;10.60;6.10;;;;;;;6.91;96.97;101894.63;5045417;28;20079;-80
2023/10/17 06:57:45;;;;;;;12.40;6.40;;;;;;;6.92;96.89;101893.75;5045275;28;20036;-80
2023/10/17 07:03:01;;;;;;;11.02;6.63;;;;;;;6.92;96.78;101886.00;5042370;28;20044;-80
2023/10/17 07:05:27;;;;;;;;;;;;;;;6.94;95.75;101894.66;5045365;28;20021;-80
2023/10/17 07:07:59;;;;;;;7.43;5.63;;;;;;;6.94;96.49;101898.09;5054216;28;20011;-80
2023/10/17 07:13:39;;;;;;;9.95;5.65;;;;;;;6.97;96.65;101894.69;5044677;28;20026;-80
2023/10/17 07:16:11;;;;;;;10.25;5.97;;;;;;;6.98;96.76;101880.88;5041805;28;20037;-80
2023/10/17 07:18:47;;;;;;;9.68;6.57;;;;;;;6.98;96.86;101888.66;5043395;28;20025;-80
2023/10/17 07:23:44;;;;;;;8.75;6.47;;;;;;;7.01;96.82;101898.13;5044651;28;20059;-80
2023/10/17 07:26:17;;;;;;;12.77;7.45;;;;;;;7.01;96.58;101898.97;5043230;28;20044;-79
2023/10/17 07:28:49;;;;;;;11.02;6.90;;;;;;;7.00;96.74;101894.69;5048689;28;20131;-80
2023/10/17 07:31:16;;;;;;;10.80;6.40;;;;;;;7.01;96.87;101886.06;5037911;28;20527;-80
2023/10/17 07:33:42;;;;;;;10.38;6.28;;;;;;;7.00;96.68;101886.94;5038564;28;20033;-80
2023/10/17 07:36:14;;;;;;;11.25;6.55;;;;;;;6.99;96.80;101883.47;5040802;28;20030;-80
2023/10/17 07:38:43;;;;;;;10.95;7.13;;;;;;;6.98;96.72;101891.22;5036088;28;20104;-80
2023/10/17 07:41:15;;;;;;;11.48;7.38;;;;;;;6.97;96.35;101880.00;5037192;28;20102;-80
2023/10/17 07:43:44;;;;;;;11.63;7.10;;;;;;;6.97;96.81;101884.31;5044641;28;20404;-80
2023/10/17 07:46:26;;;;;;;10.10;7.22;;;;;;;6.96;96.96;101886.03;5046938;28;20079;-80
2023/10/17 07:48:51;;;;;;;10.93;7.20;;;;;;;6.95;96.43;101893.78;5043637;28;20387;-80
2023/10/17 07:51:17;;;;;;;10.98;7.45;;;;;;;6.93;96.72;101890.31;5042332;28;20029;-80
2023/10/17 07:53:46;;;;;;;11.68;7.78;;;;;;;6.93;96.67;101892.91;5038548;28;20100;-80
2023/10/17 07:56:20;;;;;;;11.60;7.88;;;;;;;6.91;96.72;101892.91;5044707;28;20031;-80
2023/10/17 07:58:56;;;;;;;9.75;7.03;;;;;;;6.93;96.78;101895.50;5047636;28;20048;-80
2023/10/17 08:01:31;;;;;;;11.68;7.35;;;;;;;6.92;97.00;101892.03;5044663;28;20040;-80
2023/10/17 08:03:57;;;;;;;10.65;7.38;;;;;;;6.94;97.00;101895.50;5044879;28;20119;-80
2023/10/17 08:06:22;;;;;;;10.85;7.82;;;;;;;6.95;97.17;101886.88;5043721;28;20460;-80
2023/10/17 08:08:50;;;;;;;11.60;7.32;;;;;;;6.96;97.40;101882.59;5051377;28;20059;-80
2023/10/17 08:11:27;;;;;;;10.82;7.32;;;;;;;6.98;97.66;101880.88;5037294;28;20201;-80
2023/10/17 08:14:09;;;;;;;10.45;7.30;;;;;;;7.02;97.34;101876.59;5041635;28;20112;-80
2023/10/17 08:16:39;;;;;;;10.60;7.35;;;;;;;7.04;97.16;101872.28;5040573;28;20380;-80
2023/10/17 08:19:14;;;;;;;12.35;7.55;;;;;;;7.07;97.47;101875.75;5039397;28;20511;-80
2023/10/17 08:21:49;;;;;;;12.02;7.28;;;;;;;7.10;97.55;101874.88;5041371;28;20376;-80
2023/10/17 08:24:15;;;;;;;14.55;7.97;;;;;;;7.13;97.52;101880.97;5040812;28;20021;-80
2023/10/17 08:26:42;;;;;;;12.73;8.07;;;;;;;7.17;97.76;101875.81;5041693;28;20051;-80
2023/10/17 08:29:10;;;;;;;15.02;8.48;;;;;;;7.21;97.76;101877.53;5036277;28;20041;-80
2023/10/17 08:31:36;;;;;;;11.40;7.75;;;;;;;7.24;97.38;101882.72;5041666;28;20055;-80
2023/10/17 08:36:41;;;;;;;12.98;7.72;;;;;;;7.30;97.02;101877.59;5042106;28;20051;-80
2023/10/17 08:42:05;;;;;;;13.43;7.97;;;;;;;7.38;96.15;101869.88;5038262;28;20128;-80
2023/10/17 08:44:35;;;;;;;11.85;7.53;;;;;;;7.41;96.66;101878.50;5043906;28;20023;-80
2023/10/17 08:47:01;;;;;;;12.95;8.05;;;;;;;7.46;96.12;101875.06;5042066;28;20032;-80
2023/10/17 08:49:27;;;;;;;13.65;7.88;;;;;;;7.49;96.22;101877.69;5041733;28;20040;-80
2023/10/17 08:51:56;;;;;;;12.48;7.18;;;;;;;7.53;96.36;101876.81;5038405;28;20028;-80
2023/10/17 08:54:28;;;;;;;12.75;7.65;;;;;;;7.57;95.87;101875.97;5039464;28;20025;-80
2023/10/17 08:56:54;;;;;;;11.23;7.13;;;;;;;7.61;95.96;101877.72;5041038;28;20029;-80
2023/10/17 08:59:58;;;;;;;11.65;7.45;;;;;;;7.65;95.82;101873.41;5040907;28;20158;-80
2023/10/17 09:02:28;;;;;;;13.38;7.15;;;;;;;7.69;95.53;101872.56;5040039;28;20071;-80
2023/10/17 09:05:01;;;;;;;10.15;6.82;;;;;;;7.74;95.30;101869.13;5042502;28;20457;-80
2023/10/17 09:07:43;;;;;;;11.32;6.72;;;;;;;7.78;95.74;101869.97;5041944;28;20052;-80
2023/10/17 09:10:37;;;;;;;10.55;6.70;;;;;;;7.83;95.12;101867.41;5047707;28;20028;-80
2023/10/17 09:16:09;;;;;;;9.95;5.85;;;;;;;7.94;94.33;101870.88;5035325;28;20579;-79
2023/10/17 09:18:40;;;;;;;9.15;5.90;;;;;;;7.97;94.50;101875.19;5038048;28;20021;-79
2023/10/17 09:21:06;;;;;;;9.20;5.90;;;;;;;8.01;94.35;101874.34;5039775;28;20098;-79
2023/10/17 09:23:32;;;;;;;8.30;5.53;;;;;;;8.03;93.50;101881.25;5038654;28;20468;-80
2023/10/17 09:26:07;;;;;;;10.07;6.05;;;;;;;8.08;93.11;101883.00;5042255;28;20025;-80
2023/10/17 09:28:35;;;;;;;8.98;5.30;;;;;;;8.10;92.79;101882.16;5040450;28;20040;-80
2023/10/17 09:31:03;;;;;;;9.70;5.60;;;;;;;8.15;92.62;101875.22;5043283;28;20108;-80
2023/10/17 09:33:33;;;;;;;10.85;5.60;;;;;;;8.18;92.29;101889.94;5040472;28;20494;-79
2023/10/17 09:36:04;;;;;;;7.53;4.85;;;;;;;8.22;91.52;101889.06;5043131;28;20548;-79
2023/10/17 09:38:31;;;;;;;8.85;5.18;;;;;;;8.26;92.25;101887.34;5040327;28;20029;-79
2023/10/17 09:41:00;;;;;;;9.20;4.95;;;;;;;8.29;92.13;101877.84;5044251;28;20033;-80
2023/10/17 09:43:26;;;;;;;7.75;5.40;;;;;;;8.34;92.38;101881.31;5042251;28;20032;-79
2023/10/17 09:45:52;;;;;;;7.70;4.95;;;;;;;8.38;92.37;101891.66;5040562;28;20029;-79
2023/10/17 09:48:26;;;;;;;7.82;4.97;;;;;;;8.42;91.99;101888.22;5042599;28;20025;-79
2023/10/17 09:50:58;;;;;;;6.47;4.47;;;;;;;8.45;91.97;101888.22;5042619;28;20542;-79
2023/10/17 09:53:30;;;;;;;8.48;5.18;;;;;;;8.49;91.79;101885.66;5040394;28;20032;-79
2023/10/17 09:56:00;;;;;;;9.10;4.80;;;;;;;8.53;92.06;101883.94;5037094;28;20054;-79
2023/10/17 09:58:31;;;;;;;9.18;5.10;;;;;;;8.59;91.05;101890.84;5038706;28;20503;-80
2023/10/17 10:01:01;;;;;;;8.40;5.13;;;;;;;8.62;90.26;101889.09;5038982;28;20045;-80
2023/10/17 10:03:28;;;;;;;7.97;4.90;;;;;;;8.64;90.28;101887.38;5042137;28;20120;-80
2023/10/17 10:05:54;;;;;;;7.25;4.82;;;;;;;8.68;90.56;101887.38;5040123;28;20052;-80
2023/10/17 10:08:32;;;;;;;8.18;4.55;;;;;;;8.73;89.91;101888.22;5041449;28;20064;-79
2023/10/17 10:10:57;;;;;;;6.93;4.63;;;;;;;8.73;89.06;101878.72;5048960;28;20700;-79
2023/10/17 10:13:24;;;;;;;7.10;4.22;;;;;;;8.77;89.09;101869.19;5042737;28;20191;-80
2023/10/17 10:15:58;;;;;;;6.45;4.05;;;;;;;8.77;88.50;101864.88;5046979;28;20029;-80
2023/10/17 10:18:33;;;;;;;5.63;4.05;;;;;;;8.83;89.23;101868.31;5045292;28;20043;-80
2023/10/17 10:20:58;;;;;;;5.25;3.70;;;;;;;8.86;88.31;101874.38;5050051;28;20031;-80
2023/10/17 10:23:40;;;;;;;6.53;4.13;;;;;;;8.90;89.01;101868.31;5047654;28;20108;-80
2023/10/17 10:26:11;;;;;;;6.45;3.80;;;;;;;8.93;88.51;101870.88;5043508;28;20040;-79
2023/10/17 10:28:37;;;;;;;6.55;3.95;;;;;;;8.98;88.09;101867.44;5049638;28;20074;-79
2023/10/17 10:31:21;;;;;;;6.53;4.40;;;;;;;9.03;88.17;101858.75;5047175;28;20039;-79
2023/10/17 10:33:51;;;;;;;5.85;3.97;;;;;;;9.04;85.90;101859.63;5047752;28;20052;-79
2023/10/17 10:36:18;;;;;;;6.00;3.88;;;;;;;9.06;85.57;101860.47;5041955;28;20021;-79
2023/10/17 10:38:44;;;;;;;6.00;3.63;;;;;;;9.09;86.49;101860.47;5045134;28;20085;-79
2023/10/17 10:41:13;;;;;;;7.03;3.95;;;;;;;9.13;86.11;101861.34;5046481;28;20570;-79
2023/10/17 10:43:42;;;;;;;5.22;3.45;;;;;;;9.16;85.96;101851.81;5041724;28;20489;-79
2023/10/17 10:46:08;;;;;;;5.18;3.53;;;;;;;9.19;85.64;101862.19;5048917;28;20052;-78
2023/10/17 10:48:34;;;;;;;5.13;3.60;;;;;;;9.20;85.36;101850.94;5045874;28;20039;-79
2023/10/17 10:51:00;;;;;;;5.90;3.53;;;;;;;9.22;84.00;101843.97;5045567;28;20025;-78
2023/10/17 10:53:29;;;;;;;4.82;3.25;;;;;;;9.26;84.77;101829.25;5044910;28;20396;-79
2023/10/17 10:55:57;;;;;;;5.00;3.65;;;;;;;9.31;86.03;101824.03;5049642;28;20022;-79
2023/10/17 10:58:26;;;;;;;5.47;3.80;;;;;;;9.38;86.49;101828.34;5050519;28;20024;-79
2023/10/17 11:00:54;;;;;;;5.65;3.80;;;;;;;9.41;84.98;101823.13;5042346;28;20048;-80
2023/10/17 11:03:21;;;;;;;5.07;3.20;;;;;;;9.44;84.85;101825.69;5046849;28;21645;-79
2023/10/17 11:06:07;;;;;;;4.72;3.58;;;;;;;9.46;84.78;101813.56;5046149;28;20478;-79
2023/10/17 11:08:45;;;;;;;7.07;3.28;;;;;;;9.51;85.04;101805.75;5047110;28;20372;-79
2023/10/17 11:11:11;;;;;;;5.85;3.58;;;;;;;9.53;84.12;101814.41;5054921;28;20036;-79
2023/10/17 11:13:38;;;;;;;5.53;3.60;;;;;;;9.55;84.96;101813.53;5050256;28;20029;-80
2023/10/17 11:16:05;;;;;;;5.28;3.38;;;;;;;9.58;84.19;101802.25;5050192;28;20059;-80
2023/10/17 11:18:34;;;;;;;6.82;3.45;;;;;;;9.61;82.40;101806.56;5044645;28;20476;-80
2023/10/17 11:21:00;;;;;;;4.95;3.42;;;;;;;9.63;83.58;101804.81;5038084;28;20031;-80
2023/10/17 11:23:27;;;;;;;9.65;3.42;;;;;;;9.66;83.29;101804.81;5046871;28;20017;-80
2023/10/17 11:25:53;;;;;;;6.60;3.60;;;;;;;9.68;82.31;101793.53;5064712;28;20033;-80
2023/10/17 11:28:19;;;;;;;4.60;3.17;;;;;;;9.73;81.18;101790.91;5047694;28;20376;-79
2023/10/17 11:30:45;;;;;;;5.55;3.20;;;;;;;9.76;79.86;101790.88;5044677;28;20025;-80
2023/10/17 11:33:16;;;;;;;5.88;3.20;;;;;;;9.80;80.00;101781.34;5042578;28;20078;-79
2023/10/17 11:35:49;;;;;;;6.40;3.03;;;;;;;9.81;80.38;101778.72;5040896;28;20033;-79
2023/10/17 11:38:37;;;;;;;4.28;3.03;;;;;;;9.86;82.09;101771.75;5043835;28;20140;-80
2023/10/17 11:41:03;;;;;;;4.40;2.80;;;;;;;9.86;77.92;101771.75;5045043;28;20052;-79
2023/10/17 11:43:29;;;;;;;4.93;2.80;;;;;;;9.90;78.13;101766.53;5043542;28;20059;-79
2023/10/17 11:45:56;;;;;;;6.18;2.78;;;;;;;9.94;78.24;101773.41;5042882;28;20438;-80
2023/10/17 11:48:26;;;;;;;4.30;2.75;;;;;;;9.97;79.22;101768.19;5040911;28;20447;-80
2023/10/17 11:51:18;;;;;;;3.75;2.17;;;;;;;10.01;79.29;101767.31;5048735;28;20025;-80
2023/10/17 11:54:05;;;;;;;;;;;;;;;10.05;81.85;101766.41;5044970;28;20484;-80
2023/10/17 11:56:32;;;;;;;4.15;1.98;;;;;;;10.05;76.96;101762.94;5045572;28;20507;-79
2023/10/17 11:58:57;;;;;;;3.28;1.98;;;;;;;10.09;76.75;101768.06;5043808;28;20111;-79
2023/10/17 12:01:23;;;;;;;3.38;2.08;;;;;;;10.12;76.61;101772.41;5042083;28;20131;-79
2023/10/17 12:03:53;;;;;;;4.13;1.92;;;;;;;10.16;76.54;101774.13;5042013;28;20076;-81
2023/10/17 12:06:21;;;;;;;3.38;2.17;;;;;;;10.20;75.55;101767.97;5045644;28;20036;-80
2023/10/17 12:08:47;;;;;;;2.95;1.95;;;;;;;10.24;74.67;101755.84;5044823;28;20025;-80
2023/10/17 12:11:12;;;;;;;4.72;2.00;;;;;;;10.28;74.75;101762.72;5037764;28;20068;-79
2023/10/17 12:13:37;;;;;;;3.35;1.88;;;;;;;10.30;74.49;101764.44;5041067;28;20035;-79
2023/10/17 12:16:08;;;;;;;4.70;2.03;;;;;;;10.34;73.86;101765.25;5043323;28;20104;-80
2023/10/17 12:18:37;;;;;;;2.88;1.60;;;;;;;10.37;73.90;101770.44;5043819;28;20025;-79
2023/10/17 12:21:04;;;;;;;3.72;1.92;;;;;;;10.38;73.38;101761.78;5044161;28;20040;-79
2023/10/17 12:23:30;;;;;;;3.55;1.90;;;;;;;10.40;72.48;101757.44;5042581;28;20428;-79
2023/10/17 12:25:57;;;;;;;3.38;2.00;;;;;;;10.42;73.41;101750.47;5043313;28;20492;-80
2023/10/17 12:28:23;;;;;;;2.60;1.77;;;;;;;10.48;73.26;101740.00;5047183;28;20021;-81
2023/10/17 12:30:48;;;;;;;3.20;1.70;;;;;;;10.56;72.38;101736.47;5056536;28;20464;-80
2023/10/17 12:33:13;;;;;;;4.03;1.85;;;;;;;10.62;73.55;101728.56;5050909;28;20036;-80
2023/10/17 12:35:38;;;;;;;2.50;1.48;;;;;;;10.66;73.65;101714.66;5046290;28;20078;-80
2023/10/17 12:38:14;;;;;;;3.10;1.65;;;;;;;10.74;73.22;101715.44;5052106;28;20033;-81
2023/10/17 12:40:42;;;;;;;2.25;1.50;;;;;;;10.79;71.07;101707.56;5050728;28;20040;-80
2023/10/17 12:43:11;;;;;;;2.58;1.75;;;;;;;10.84;70.34;101695.34;5050984;28;20021;-80
2023/10/17 12:45:37;;;;;;;2.33;1.70;;;;;;;10.89;70.47;101698.72;5048639;28;20086;-80
2023/10/17 12:48:02;;;;;;;3.80;1.90;;;;;;;10.91;70.17;101691.78;5049861;28;20472;-80
2023/10/17 12:50:29;;;;;;;4.13;1.80;;;;;;;10.92;69.05;101687.44;5050373;28;20032;-80
2023/10/17 12:52:54;;;;;;;2.22;1.60;;;;;;;10.95;69.69;101676.09;5049539;28;20111;-80
2023/10/17 12:55:20;;;;;;;2.75;1.80;;;;;;;10.99;70.91;101672.59;5051499;28;20181;-80
2023/10/17 12:57:45;;;;;;;3.38;1.77;;;;;;;11.02;70.13;101664.72;5048473;28;20044;-80
2023/10/17 13:00:11;;;;;;;2.67;1.70;;;;;;;11.06;71.21;101662.06;5046331;28;20542;-80
2023/10/17 13:02:40;;;;;;;2.78;1.55;;;;;;;11.08;70.06;101654.22;5051245;28;20476;-80
2023/10/17 13:05:10;;;;;;;3.55;2.10;;;;;;;11.10;70.49;101664.63;5049757;28;20036;-80
2023/10/17 13:07:39;;;;;;;3.92;1.90;;;;;;;11.13;69.66;101659.34;5048947;28;20526;-80
2023/10/17 13:10:07;;;;;;;3.47;2.10;;;;;;;11.15;70.08;101660.19;5051190;28;20029;-80
2023/10/17 13:12:32;;;;;;;2.22;1.83;;;;;;;11.18;69.62;101657.53;5058823;28;20035;-80
2023/10/17 13:14:58;;;;;;;3.25;2.08;;;;;;;11.23;69.59;101660.94;5056004;28;20448;-80
2023/10/17 13:17:24;;;;;;;5.03;2.70;;;;;;;11.27;69.95;101662.63;5055897;28;20005;-80
2023/10/17 13:19:51;;;;;;;3.47;2.30;;;;;;;11.30;68.92;101665.16;5036480;28;20029;-80
2023/10/17 13:22:17;;;;;;;5.43;2.60;;;;;;;11.35;69.35;101660.75;5063169;28;20021;-80
2023/10/17 13:24:45;;;;;;;3.38;2.47;;;;;;;11.42;69.38;101658.06;5055902;28;20029;-81
2023/10/17 13:27:10;;;;;;;2.75;2.10;;;;;;;11.54;68.65;101657.84;5049401;28;20032;-80
2023/10/17 13:29:36;;;;;;;4.65;2.55;;;;;;;11.67;69.21;101648.94;5054046;28;20356;-80
2023/10/17 13:32:07;;;;;;;2.92;2.08;;;;;;;11.78;68.50;101647.91;5052620;28;20032;-80
2023/10/17 13:34:37;;;;;;;6.47;2.70;;;;;;;11.79;67.40;101649.59;5047309;28;20049;-80
2023/10/17 13:37:05;;;;;;;4.13;2.50;;;;;;;11.77;68.56;101654.84;5051056;28;20028;-80
2023/10/17 13:39:32;;;;;;;4.63;2.40;;;;;;;11.71;67.66;101659.31;5049601;28;20360;-80
2023/10/17 13:41:57;;;;;;;4.10;2.60;;;;;;;11.65;67.46;101648.09;5052678;28;20028;-80
2023/10/17 13:44:23;;;;;;;3.63;2.38;;;;;;;11.56;67.80;101642.16;5050189;28;20025;-80
2023/10/17 13:46:51;;;;;;;3.38;2.20;;;;;;;11.47;68.58;101649.28;5048349;28;20033;-80
2023/10/17 13:49:16;;;;;;;3.50;2.35;;;;;;;11.43;68.96;101641.53;5049006;28;20133;-81